sensor_id;sensor_type;location;lat;lon;timestamp;P1;durP1;ratioP1;P2;durP2;ratioP2
75926;SDS011;64605;48.296;16.416;2022-11-15T00:01:40;103.15;;;51.38;;
75926;SDS011;64605;48.296;16.416;2022-11-15T00:04:06;101.50;;;49.60;;
75926;SDS011;64605;48.296;16.416;2022-11-15T00:06:32;97.55;;;49.35;;
75926;SDS011;64605;48.296;16.416;2022-11-15T00:08:58;94.38;;;49.03;;
75926;SDS011;64605;48.296;16.416;2022-11-15T00:11:24;94.13;;;46.65;;
75926;SDS011;64605;48.296;16.416;2022-11-15T00:13:50;99.47;;;47.05;;
75926;SDS011;64605;48.296;16.416;2022-11-15T00:16:16;112.57;;;50.70;;
75926;SDS011;64605;48.296;16.416;2022-11-15T00:18:42;90.47;;;45.78;;
75926;SDS011;64605;48.296;16.416;2022-11-15T00:21:09;88.88;;;44.80;;
75926;SDS011;64605;48.296;16.416;2022-11-15T00:23:36;96.55;;;48.67;;
75926;SDS011;64605;48.296;16.416;2022-11-15T00:26:02;100.60;;;48.95;;
75926;SDS011;64605;48.296;16.416;2022-11-15T00:28:28;93.60;;;46.83;;
75926;SDS011;64605;48.296;16.416;2022-11-15T00:30:59;99.07;;;47.05;;
75926;SDS011;64605;48.296;16.416;2022-11-15T00:33:29;97.93;;;47.58;;
75926;SDS011;64605;48.296;16.416;2022-11-15T00:36:03;107.30;;;50.90;;
75926;SDS011;64605;48.296;16.416;2022-11-15T00:38:30;107.28;;;49.42;;
75926;SDS011;64605;48.296;16.416;2022-11-15T00:40:57;114.07;;;51.63;;
75926;SDS011;64605;48.296;16.416;2022-11-15T00:43:23;108.28;;;51.60;;
75926;SDS011;64605;48.296;16.416;2022-11-15T00:45:48;106.85;;;51.25;;
75926;SDS011;64605;48.296;16.416;2022-11-15T00:48:14;106.70;;;51.75;;
75926;SDS011;64605;48.296;16.416;2022-11-15T00:50:40;106.65;;;49.58;;
75926;SDS011;64605;48.296;16.416;2022-11-15T00:53:05;130.40;;;57.20;;
75926;SDS011;64605;48.296;16.416;2022-11-15T00:55:31;142.73;;;56.72;;
75926;SDS011;64605;48.296;16.416;2022-11-15T00:57:57;129.15;;;56.20;;
75926;SDS011;64605;48.296;16.416;2022-11-15T01:00:22;150.32;;;59.95;;
75926;SDS011;64605;48.296;16.416;2022-11-15T01:02:48;141.77;;;55.33;;
75926;SDS011;64605;48.296;16.416;2022-11-15T01:05:14;175.05;;;62.13;;
75926;SDS011;64605;48.296;16.416;2022-11-15T01:07:39;127.00;;;55.30;;
75926;SDS011;64605;48.296;16.416;2022-11-15T01:10:05;140.65;;;57.65;;
75926;SDS011;64605;48.296;16.416;2022-11-15T01:12:31;149.63;;;56.67;;
75926;SDS011;64605;48.296;16.416;2022-11-15T01:14:57;134.20;;;54.90;;
75926;SDS011;64605;48.296;16.416;2022-11-15T01:17:23;154.05;;;58.53;;
75926;SDS011;64605;48.296;16.416;2022-11-15T01:19:49;128.57;;;57.00;;
75926;SDS011;64605;48.296;16.416;2022-11-15T01:22:15;122.47;;;52.05;;
75926;SDS011;64605;48.296;16.416;2022-11-15T01:24:41;119.05;;;51.95;;
75926;SDS011;64605;48.296;16.416;2022-11-15T01:27:07;110.57;;;51.88;;
75926;SDS011;64605;48.296;16.416;2022-11-15T01:29:33;136.98;;;54.60;;
75926;SDS011;64605;48.296;16.416;2022-11-15T01:31:58;108.22;;;49.70;;
75926;SDS011;64605;48.296;16.416;2022-11-15T01:34:24;106.53;;;49.45;;
75926;SDS011;64605;48.296;16.416;2022-11-15T01:36:50;128.45;;;52.50;;
75926;SDS011;64605;48.296;16.416;2022-11-15T01:39:16;125.90;;;50.00;;
75926;SDS011;64605;48.296;16.416;2022-11-15T01:41:41;105.05;;;47.65;;
75926;SDS011;64605;48.296;16.416;2022-11-15T01:47:17;100.60;;;45.10;;
75926;SDS011;64605;48.296;16.416;2022-11-15T01:50:21;107.75;;;48.95;;
75926;SDS011;64605;48.296;16.416;2022-11-15T01:52:40;115.68;;;49.50;;
75926;SDS011;64605;48.296;16.416;2022-11-15T01:55:08;102.10;;;47.30;;
75926;SDS011;64605;48.296;16.416;2022-11-15T01:57:43;113.13;;;49.75;;
75926;SDS011;64605;48.296;16.416;2022-11-15T02:00:12;98.25;;;46.55;;
75926;SDS011;64605;48.296;16.416;2022-11-15T02:02:38;109.20;;;48.80;;
75926;SDS011;64605;48.296;16.416;2022-11-15T02:05:05;92.57;;;45.83;;
75926;SDS011;64605;48.296;16.416;2022-11-15T02:07:31;91.50;;;44.28;;
75926;SDS011;64605;48.296;16.416;2022-11-15T02:09:59;96.85;;;45.70;;
75926;SDS011;64605;48.296;16.416;2022-11-15T02:12:31;106.35;;;47.85;;
75926;SDS011;64605;48.296;16.416;2022-11-15T02:14:57;97.72;;;45.90;;
75926;SDS011;64605;48.296;16.416;2022-11-15T02:28:51;98.97;;;44.75;;
75926;SDS011;64605;48.296;16.416;2022-11-15T02:39:35;92.47;;;45.60;;
75926;SDS011;64605;48.296;16.416;2022-11-15T02:44:55;99.70;;;45.83;;
75926;SDS011;64605;48.296;16.416;2022-11-15T02:47:25;105.65;;;46.88;;
75926;SDS011;64605;48.296;16.416;2022-11-15T02:49:57;121.03;;;50.70;;
75926;SDS011;64605;48.296;16.416;2022-11-15T02:52:25;110.00;;;47.78;;
75926;SDS011;64605;48.296;16.416;2022-11-15T02:54:53;111.38;;;47.15;;
75926;SDS011;64605;48.296;16.416;2022-11-15T02:57:21;94.75;;;44.05;;
75926;SDS011;64605;48.296;16.416;2022-11-15T02:59:57;95.53;;;45.03;;
75926;SDS011;64605;48.296;16.416;2022-11-15T03:02:52;89.65;;;43.42;;
75926;SDS011;64605;48.296;16.416;2022-11-15T03:16:19;103.55;;;43.42;;
75926;SDS011;64605;48.296;16.416;2022-11-15T03:18:50;109.90;;;46.53;;
75926;SDS011;64605;48.296;16.416;2022-11-15T03:21:20;105.45;;;46.83;;
75926;SDS011;64605;48.296;16.416;2022-11-15T03:23:47;105.88;;;46.05;;
75926;SDS011;64605;48.296;16.416;2022-11-15T03:26:16;127.65;;;47.75;;
75926;SDS011;64605;48.296;16.416;2022-11-15T03:28:47;116.50;;;46.97;;
75926;SDS011;64605;48.296;16.416;2022-11-15T03:31:26;133.10;;;48.30;;
75926;SDS011;64605;48.296;16.416;2022-11-15T03:34:31;140.75;;;47.72;;
75926;SDS011;64605;48.296;16.416;2022-11-15T03:37:02;117.70;;;46.30;;
75926;SDS011;64605;48.296;16.416;2022-11-15T03:39:29;125.60;;;48.30;;
75926;SDS011;64605;48.296;16.416;2022-11-15T03:42:08;115.07;;;47.22;;
75926;SDS011;64605;48.296;16.416;2022-11-15T03:45:12;124.07;;;49.83;;
75926;SDS011;64605;48.296;16.416;2022-11-15T03:47:46;110.90;;;48.08;;
75926;SDS011;64605;48.296;16.416;2022-11-15T03:50:24;143.65;;;50.95;;
75926;SDS011;64605;48.296;16.416;2022-11-15T03:52:50;148.60;;;50.60;;
75926;SDS011;64605;48.296;16.416;2022-11-15T03:55:19;167.63;;;55.50;;
75926;SDS011;64605;48.296;16.416;2022-11-15T03:57:46;179.57;;;57.55;;
75926;SDS011;64605;48.296;16.416;2022-11-15T04:00:15;162.55;;;53.72;;
75926;SDS011;64605;48.296;16.416;2022-11-15T04:02:41;127.30;;;54.05;;
75926;SDS011;64605;48.296;16.416;2022-11-15T04:05:07;186.68;;;54.10;;
75926;SDS011;64605;48.296;16.416;2022-11-15T04:07:33;169.85;;;55.05;;
75926;SDS011;64605;48.296;16.416;2022-11-15T04:09:58;172.65;;;48.70;;
75926;SDS011;64605;48.296;16.416;2022-11-15T04:12:27;170.90;;;50.83;;
75926;SDS011;64605;48.296;16.416;2022-11-15T04:15:00;167.40;;;52.85;;
75926;SDS011;64605;48.296;16.416;2022-11-15T04:17:37;157.57;;;52.33;;
75926;SDS011;64605;48.296;16.416;2022-11-15T04:20:05;167.32;;;51.63;;
75926;SDS011;64605;48.296;16.416;2022-11-15T04:25:59;165.38;;;52.75;;
75926;SDS011;64605;48.296;16.416;2022-11-15T04:28:26;167.40;;;52.05;;
75926;SDS011;64605;48.296;16.416;2022-11-15T04:30:52;168.45;;;55.05;;
75926;SDS011;64605;48.296;16.416;2022-11-15T04:33:18;149.70;;;50.00;;
75926;SDS011;64605;48.296;16.416;2022-11-15T04:35:44;192.75;;;54.72;;
75926;SDS011;64605;48.296;16.416;2022-11-15T04:38:30;166.27;;;52.05;;
75926;SDS011;64605;48.296;16.416;2022-11-15T04:40:56;152.82;;;52.92;;
75926;SDS011;64605;48.296;16.416;2022-11-15T04:43:21;136.27;;;51.75;;
75926;SDS011;64605;48.296;16.416;2022-11-15T04:45:47;191.88;;;53.67;;
75926;SDS011;64605;48.296;16.416;2022-11-15T04:48:13;144.25;;;49.20;;
75926;SDS011;64605;48.296;16.416;2022-11-15T04:50:38;180.32;;;56.78;;
75926;SDS011;64605;48.296;16.416;2022-11-15T04:53:04;163.30;;;54.28;;
75926;SDS011;64605;48.296;16.416;2022-11-15T04:55:30;162.65;;;49.85;;
75926;SDS011;64605;48.296;16.416;2022-11-15T04:57:57;179.13;;;51.67;;
75926;SDS011;64605;48.296;16.416;2022-11-15T05:00:26;153.80;;;50.03;;
75926;SDS011;64605;48.296;16.416;2022-11-15T05:02:53;174.32;;;57.70;;
75926;SDS011;64605;48.296;16.416;2022-11-15T05:05:37;149.57;;;53.15;;
75926;SDS011;64605;48.296;16.416;2022-11-15T05:08:03;147.93;;;51.13;;
75926;SDS011;64605;48.296;16.416;2022-11-15T05:10:29;140.35;;;48.97;;
75926;SDS011;64605;48.296;16.416;2022-11-15T05:12:55;166.35;;;53.47;;
75926;SDS011;64605;48.296;16.416;2022-11-15T05:15:20;151.18;;;51.97;;
75926;SDS011;64605;48.296;16.416;2022-11-15T05:17:46;153.75;;;53.05;;
75926;SDS011;64605;48.296;16.416;2022-11-15T05:20:12;166.18;;;52.30;;
75926;SDS011;64605;48.296;16.416;2022-11-15T05:22:38;152.23;;;53.33;;
75926;SDS011;64605;48.296;16.416;2022-11-15T05:25:03;134.30;;;51.53;;
75926;SDS011;64605;48.296;16.416;2022-11-15T05:27:29;139.43;;;49.60;;
75926;SDS011;64605;48.296;16.416;2022-11-15T05:29:55;124.32;;;47.63;;
75926;SDS011;64605;48.296;16.416;2022-11-15T05:32:21;122.85;;;46.85;;
75926;SDS011;64605;48.296;16.416;2022-11-15T05:34:47;135.55;;;47.55;;
75926;SDS011;64605;48.296;16.416;2022-11-15T05:37:13;127.28;;;47.35;;
75926;SDS011;64605;48.296;16.416;2022-11-15T05:39:39;124.18;;;48.13;;
75926;SDS011;64605;48.296;16.416;2022-11-15T05:42:06;112.50;;;46.83;;
75926;SDS011;64605;48.296;16.416;2022-11-15T05:44:33;137.30;;;50.00;;
75926;SDS011;64605;48.296;16.416;2022-11-15T05:47:01;141.57;;;49.90;;
75926;SDS011;64605;48.296;16.416;2022-11-15T05:49:30;147.07;;;49.88;;
75926;SDS011;64605;48.296;16.416;2022-11-15T05:52:00;122.25;;;48.67;;
75926;SDS011;64605;48.296;16.416;2022-11-15T05:54:30;154.35;;;48.03;;
75926;SDS011;64605;48.296;16.416;2022-11-15T05:56:56;164.90;;;51.63;;
75926;SDS011;64605;48.296;16.416;2022-11-15T05:59:22;176.10;;;51.78;;
75926;SDS011;64605;48.296;16.416;2022-11-15T06:01:48;133.00;;;48.67;;
75926;SDS011;64605;48.296;16.416;2022-11-15T06:04:14;133.82;;;48.15;;
75926;SDS011;64605;48.296;16.416;2022-11-15T06:06:39;130.00;;;49.47;;
75926;SDS011;64605;48.296;16.416;2022-11-15T06:09:05;126.68;;;49.15;;
75926;SDS011;64605;48.296;16.416;2022-11-15T06:11:31;140.32;;;51.97;;
75926;SDS011;64605;48.296;16.416;2022-11-15T06:13:56;173.77;;;52.22;;
75926;SDS011;64605;48.296;16.416;2022-11-15T06:16:22;188.60;;;51.95;;
75926;SDS011;64605;48.296;16.416;2022-11-15T06:18:47;148.65;;;51.15;;
75926;SDS011;64605;48.296;16.416;2022-11-15T06:21:13;160.75;;;51.95;;
75926;SDS011;64605;48.296;16.416;2022-11-15T06:23:39;150.98;;;51.42;;
75926;SDS011;64605;48.296;16.416;2022-11-15T06:26:04;151.98;;;50.38;;
75926;SDS011;64605;48.296;16.416;2022-11-15T06:28:30;170.48;;;51.63;;
75926;SDS011;64605;48.296;16.416;2022-11-15T06:31:07;169.48;;;51.83;;
75926;SDS011;64605;48.296;16.416;2022-11-15T06:33:34;190.80;;;53.47;;
75926;SDS011;64605;48.296;16.416;2022-11-15T06:36:03;186.32;;;51.55;;
75926;SDS011;64605;48.296;16.416;2022-11-15T06:38:30;164.65;;;50.63;;
75926;SDS011;64605;48.296;16.416;2022-11-15T06:41:01;154.43;;;52.45;;
75926;SDS011;64605;48.296;16.416;2022-11-15T06:43:31;166.32;;;51.38;;
75926;SDS011;64605;48.296;16.416;2022-11-15T06:46:00;166.15;;;50.72;;
75926;SDS011;64605;48.296;16.416;2022-11-15T06:48:27;149.70;;;51.00;;
75926;SDS011;64605;48.296;16.416;2022-11-15T06:50:54;170.07;;;52.25;;
75926;SDS011;64605;48.296;16.416;2022-11-15T06:53:21;146.85;;;49.97;;
75926;SDS011;64605;48.296;16.416;2022-11-15T06:55:48;135.98;;;50.03;;
75926;SDS011;64605;48.296;16.416;2022-11-15T06:58:14;259.63;;;63.40;;
75926;SDS011;64605;48.296;16.416;2022-11-15T07:00:40;175.40;;;49.85;;
75926;SDS011;64605;48.296;16.416;2022-11-15T07:03:06;138.35;;;50.75;;
75926;SDS011;64605;48.296;16.416;2022-11-15T07:05:31;155.60;;;52.33;;
75926;SDS011;64605;48.296;16.416;2022-11-15T07:07:57;144.50;;;52.83;;
75926;SDS011;64605;48.296;16.416;2022-11-15T07:10:24;144.65;;;50.67;;
75926;SDS011;64605;48.296;16.416;2022-11-15T07:12:53;145.98;;;51.47;;
75926;SDS011;64605;48.296;16.416;2022-11-15T07:15:22;137.00;;;51.15;;
75926;SDS011;64605;48.296;16.416;2022-11-15T07:17:49;139.50;;;51.55;;
75926;SDS011;64605;48.296;16.416;2022-11-15T07:20:15;144.65;;;51.83;;
75926;SDS011;64605;48.296;16.416;2022-11-15T07:22:41;120.45;;;48.25;;
75926;SDS011;64605;48.296;16.416;2022-11-15T07:25:07;131.70;;;49.20;;
75926;SDS011;64605;48.296;16.416;2022-11-15T07:27:33;130.38;;;49.40;;
75926;SDS011;64605;48.296;16.416;2022-11-15T07:29:59;135.55;;;50.53;;
75926;SDS011;64605;48.296;16.416;2022-11-15T07:32:25;135.02;;;48.55;;
75926;SDS011;64605;48.296;16.416;2022-11-15T07:34:51;143.63;;;49.95;;
75926;SDS011;64605;48.296;16.416;2022-11-15T07:37:16;140.07;;;50.28;;
75926;SDS011;64605;48.296;16.416;2022-11-15T07:39:42;144.13;;;50.05;;
75926;SDS011;64605;48.296;16.416;2022-11-15T07:42:08;180.25;;;52.72;;
75926;SDS011;64605;48.296;16.416;2022-11-15T07:44:54;161.70;;;51.28;;
75926;SDS011;64605;48.296;16.416;2022-11-15T07:47:20;135.80;;;49.63;;
75926;SDS011;64605;48.296;16.416;2022-11-15T07:49:46;145.88;;;52.83;;
75926;SDS011;64605;48.296;16.416;2022-11-15T07:52:12;183.52;;;57.25;;
75926;SDS011;64605;48.296;16.416;2022-11-15T07:54:38;150.93;;;54.50;;
75926;SDS011;64605;48.296;16.416;2022-11-15T07:57:04;145.63;;;52.10;;
75926;SDS011;64605;48.296;16.416;2022-11-15T07:59:31;203.30;;;58.25;;
75926;SDS011;64605;48.296;16.416;2022-11-15T08:01:57;136.55;;;51.90;;
75926;SDS011;64605;48.296;16.416;2022-11-15T08:04:23;143.25;;;50.28;;
75926;SDS011;64605;48.296;16.416;2022-11-15T08:06:49;148.38;;;50.42;;
75926;SDS011;64605;48.296;16.416;2022-11-15T08:09:14;165.40;;;53.22;;
75926;SDS011;64605;48.296;16.416;2022-11-15T08:11:40;157.32;;;53.40;;
75926;SDS011;64605;48.296;16.416;2022-11-15T08:14:05;144.77;;;51.00;;
75926;SDS011;64605;48.296;16.416;2022-11-15T08:16:31;122.65;;;51.33;;
75926;SDS011;64605;48.296;16.416;2022-11-15T08:18:57;133.43;;;51.67;;
75926;SDS011;64605;48.296;16.416;2022-11-15T08:21:22;136.52;;;51.00;;
75926;SDS011;64605;48.296;16.416;2022-11-15T08:23:48;146.10;;;50.97;;
75926;SDS011;64605;48.296;16.416;2022-11-15T08:26:15;149.07;;;50.60;;
75926;SDS011;64605;48.296;16.416;2022-11-15T08:28:41;159.43;;;53.83;;
75926;SDS011;64605;48.296;16.416;2022-11-15T08:31:11;134.35;;;52.97;;
75926;SDS011;64605;48.296;16.416;2022-11-15T08:33:43;164.75;;;51.20;;
75926;SDS011;64605;48.296;16.416;2022-11-15T08:36:11;155.63;;;52.22;;
75926;SDS011;64605;48.296;16.416;2022-11-15T08:38:39;140.73;;;51.63;;
75926;SDS011;64605;48.296;16.416;2022-11-15T08:41:05;142.00;;;51.22;;
75926;SDS011;64605;48.296;16.416;2022-11-15T08:43:31;146.48;;;49.53;;
75926;SDS011;64605;48.296;16.416;2022-11-15T08:45:57;148.30;;;51.28;;
75926;SDS011;64605;48.296;16.416;2022-11-15T08:48:23;136.73;;;50.80;;
75926;SDS011;64605;48.296;16.416;2022-11-15T08:50:48;138.57;;;47.60;;
75926;SDS011;64605;48.296;16.416;2022-11-15T08:53:17;127.05;;;51.67;;
75926;SDS011;64605;48.296;16.416;2022-11-15T08:55:43;124.30;;;48.80;;
75926;SDS011;64605;48.296;16.416;2022-11-15T08:58:09;134.70;;;50.20;;
75926;SDS011;64605;48.296;16.416;2022-11-15T09:00:34;109.70;;;46.63;;
75926;SDS011;64605;48.296;16.416;2022-11-15T09:03:03;174.00;;;53.53;;
75926;SDS011;64605;48.296;16.416;2022-11-15T09:05:29;121.70;;;48.90;;
75926;SDS011;64605;48.296;16.416;2022-11-15T09:07:55;115.38;;;46.72;;
75926;SDS011;64605;48.296;16.416;2022-11-15T09:10:21;110.35;;;45.13;;
75926;SDS011;64605;48.296;16.416;2022-11-15T09:12:47;135.73;;;49.40;;
75926;SDS011;64605;48.296;16.416;2022-11-15T09:15:13;131.98;;;47.20;;
75926;SDS011;64605;48.296;16.416;2022-11-15T09:17:40;114.68;;;46.83;;
75926;SDS011;64605;48.296;16.416;2022-11-15T09:20:06;114.82;;;45.63;;
75926;SDS011;64605;48.296;16.416;2022-11-15T09:22:32;120.28;;;47.58;;
75926;SDS011;64605;48.296;16.416;2022-11-15T09:24:58;115.22;;;48.17;;
75926;SDS011;64605;48.296;16.416;2022-11-15T09:27:27;119.72;;;49.25;;
75926;SDS011;64605;48.296;16.416;2022-11-15T09:29:54;109.80;;;50.17;;
75926;SDS011;64605;48.296;16.416;2022-11-15T09:32:20;107.45;;;47.42;;
75926;SDS011;64605;48.296;16.416;2022-11-15T09:34:47;114.80;;;48.60;;
75926;SDS011;64605;48.296;16.416;2022-11-15T09:37:13;116.93;;;49.17;;
75926;SDS011;64605;48.296;16.416;2022-11-15T09:39:39;121.35;;;48.38;;
75926;SDS011;64605;48.296;16.416;2022-11-15T09:50:11;110.93;;;44.67;;
75926;SDS011;64605;48.296;16.416;2022-11-15T09:52:41;118.75;;;46.53;;
75926;SDS011;64605;48.296;16.416;2022-11-15T09:55:10;113.85;;;48.40;;
75926;SDS011;64605;48.296;16.416;2022-11-15T10:00:45;114.57;;;46.97;;
75926;SDS011;64605;48.296;16.416;2022-11-15T10:03:14;116.68;;;47.53;;
75926;SDS011;64605;48.296;16.416;2022-11-15T10:05:55;121.95;;;47.97;;
75926;SDS011;64605;48.296;16.416;2022-11-15T10:11:20;95.85;;;35.83;;
75926;SDS011;64605;48.296;16.416;2022-11-15T10:13:53;121.22;;;47.60;;
75926;SDS011;64605;48.296;16.416;2022-11-15T10:19:32;110.60;;;47.42;;
75926;SDS011;64605;48.296;16.416;2022-11-15T10:24:59;133.68;;;50.28;;
75926;SDS011;64605;48.296;16.416;2022-11-15T10:27:41;112.38;;;49.47;;
75926;SDS011;64605;48.296;16.416;2022-11-15T10:30:17;127.13;;;47.63;;
75926;SDS011;64605;48.296;16.416;2022-11-15T10:32:44;132.48;;;49.42;;
75926;SDS011;64605;48.296;16.416;2022-11-15T10:35:21;124.53;;;51.22;;
75926;SDS011;64605;48.296;16.416;2022-11-15T10:37:50;118.63;;;50.30;;
75926;SDS011;64605;48.296;16.416;2022-11-15T10:40:22;119.90;;;50.95;;
75926;SDS011;64605;48.296;16.416;2022-11-15T10:43:03;122.85;;;49.28;;
75926;SDS011;64605;48.296;16.416;2022-11-15T10:45:31;126.18;;;50.45;;
75926;SDS011;64605;48.296;16.416;2022-11-15T10:50:39;142.98;;;51.97;;
75926;SDS011;64605;48.296;16.416;2022-11-15T10:53:15;163.25;;;53.47;;
75926;SDS011;64605;48.296;16.416;2022-11-15T10:55:48;119.80;;;52.05;;
75926;SDS011;64605;48.296;16.416;2022-11-15T10:58:21;126.18;;;53.70;;
75926;SDS011;64605;48.296;16.416;2022-11-15T11:01:08;123.70;;;52.03;;
75926;SDS011;64605;48.296;16.416;2022-11-15T11:03:35;123.32;;;51.92;;
75926;SDS011;64605;48.296;16.416;2022-11-15T11:08:53;134.27;;;51.83;;
75926;SDS011;64605;48.296;16.416;2022-11-15T11:11:23;140.05;;;52.63;;
75926;SDS011;64605;48.296;16.416;2022-11-15T11:13:50;203.93;;;61.35;;
75926;SDS011;64605;48.296;16.416;2022-11-15T11:16:27;133.30;;;52.30;;
75926;SDS011;64605;48.296;16.416;2022-11-15T11:19:04;143.65;;;56.13;;
75926;SDS011;64605;48.296;16.416;2022-11-15T11:40:38;109.30;;;51.05;;
75926;SDS011;64605;48.296;16.416;2022-11-15T11:51:13;100.15;;;46.95;;
75926;SDS011;64605;48.296;16.416;2022-11-15T11:53:54;100.05;;;45.67;;
75926;SDS011;64605;48.296;16.416;2022-11-15T11:56:29;97.75;;;44.55;;
75926;SDS011;64605;48.296;16.416;2022-11-15T11:59:11;102.43;;;45.27;;
75926;SDS011;64605;48.296;16.416;2022-11-15T12:01:56;95.68;;;42.78;;
75926;SDS011;64605;48.296;16.416;2022-11-15T12:04:30;101.22;;;45.78;;
75926;SDS011;64605;48.296;16.416;2022-11-15T12:07:15;98.97;;;47.00;;
75926;SDS011;64605;48.296;16.416;2022-11-15T12:10:22;106.10;;;47.47;;
75926;SDS011;64605;48.296;16.416;2022-11-15T12:13:07;112.22;;;47.75;;
75926;SDS011;64605;48.296;16.416;2022-11-15T12:15:41;99.50;;;46.58;;
75926;SDS011;64605;48.296;16.416;2022-11-15T12:18:16;113.30;;;49.35;;
75926;SDS011;64605;48.296;16.416;2022-11-15T12:20:52;108.75;;;50.22;;
75926;SDS011;64605;48.296;16.416;2022-11-15T12:23:25;107.95;;;48.35;;
75926;SDS011;64605;48.296;16.416;2022-11-15T12:26:16;110.22;;;46.72;;
75926;SDS011;64605;48.296;16.416;2022-11-15T12:28:50;122.93;;;52.08;;
75926;SDS011;64605;48.296;16.416;2022-11-15T12:31:42;104.20;;;49.20;;
75926;SDS011;64605;48.296;16.416;2022-11-15T12:36:45;118.88;;;51.30;;
75926;SDS011;64605;48.296;16.416;2022-11-15T12:39:12;135.10;;;53.53;;
75926;SDS011;64605;48.296;16.416;2022-11-15T12:41:39;166.80;;;63.10;;
75926;SDS011;64605;48.296;16.416;2022-11-15T12:44:55;124.10;;;55.08;;
75926;SDS011;64605;48.296;16.416;2022-11-15T12:47:00;136.00;;;54.35;;
75926;SDS011;64605;48.296;16.416;2022-11-15T12:49:47;131.77;;;57.08;;
75926;SDS011;64605;48.296;16.416;2022-11-15T12:52:13;136.32;;;55.53;;
75926;SDS011;64605;48.296;16.416;2022-11-15T13:02:38;145.00;;;59.22;;
75926;SDS011;64605;48.296;16.416;2022-11-15T13:20:18;145.02;;;62.75;;
75926;SDS011;64605;48.296;16.416;2022-11-15T13:30:47;149.75;;;62.97;;
75926;SDS011;64605;48.296;16.416;2022-11-15T13:33:22;136.68;;;60.70;;
75926;SDS011;64605;48.296;16.416;2022-11-15T13:38:35;149.18;;;62.67;;
75926;SDS011;64605;48.296;16.416;2022-11-15T13:41:16;137.25;;;60.72;;
75926;SDS011;64605;48.296;16.416;2022-11-15T13:43:45;134.27;;;63.88;;
75926;SDS011;64605;48.296;16.416;2022-11-15T13:46:27;140.70;;;61.25;;
75926;SDS011;64605;48.296;16.416;2022-11-15T13:54:01;123.75;;;58.25;;
75926;SDS011;64605;48.296;16.416;2022-11-15T13:56:37;126.93;;;59.35;;
75926;SDS011;64605;48.296;16.416;2022-11-15T13:59:54;129.05;;;62.10;;
75926;SDS011;64605;48.296;16.416;2022-11-15T14:01:57;133.60;;;61.28;;
75926;SDS011;64605;48.296;16.416;2022-11-15T14:04:26;125.55;;;57.70;;
75926;SDS011;64605;48.296;16.416;2022-11-15T14:06:58;120.45;;;57.75;;
75926;SDS011;64605;48.296;16.416;2022-11-15T14:09:36;131.55;;;60.15;;
75926;SDS011;64605;48.296;16.416;2022-11-15T14:12:22;129.48;;;59.85;;
75926;SDS011;64605;48.296;16.416;2022-11-15T14:14:58;132.65;;;60.20;;
75926;SDS011;64605;48.296;16.416;2022-11-15T14:19:56;131.45;;;60.35;;
75926;SDS011;64605;48.296;16.416;2022-11-15T14:22:23;145.55;;;63.83;;
75926;SDS011;64605;48.296;16.416;2022-11-15T14:27:34;132.38;;;61.25;;
75926;SDS011;64605;48.296;16.416;2022-11-15T14:30:00;138.05;;;62.35;;
75926;SDS011;64605;48.296;16.416;2022-11-15T14:32:37;146.95;;;63.47;;
75926;SDS011;64605;48.296;16.416;2022-11-15T14:35:12;145.98;;;66.03;;
75926;SDS011;64605;48.296;16.416;2022-11-15T14:37:42;139.52;;;67.05;;
75926;SDS011;64605;48.296;16.416;2022-11-15T14:40:11;169.27;;;78.32;;
75926;SDS011;64605;48.296;16.416;2022-11-15T14:45:13;144.25;;;65.82;;
75926;SDS011;64605;48.296;16.416;2022-11-15T14:47:40;135.45;;;64.07;;
75926;SDS011;64605;48.296;16.416;2022-11-15T14:50:10;144.70;;;70.35;;
75926;SDS011;64605;48.296;16.416;2022-11-15T14:52:37;166.60;;;74.63;;
75926;SDS011;64605;48.296;16.416;2022-11-15T14:55:08;139.68;;;65.47;;
75926;SDS011;64605;48.296;16.416;2022-11-15T14:57:52;139.05;;;66.50;;
75926;SDS011;64605;48.296;16.416;2022-11-15T15:00:18;149.90;;;70.10;;
75926;SDS011;64605;48.296;16.416;2022-11-15T15:02:44;140.30;;;65.53;;
75926;SDS011;64605;48.296;16.416;2022-11-15T15:07:44;147.95;;;69.13;;
75926;SDS011;64605;48.296;16.416;2022-11-15T15:10:11;148.90;;;69.70;;
75926;SDS011;64605;48.296;16.416;2022-11-15T15:12:38;141.20;;;67.32;;
75926;SDS011;64605;48.296;16.416;2022-11-15T15:15:04;141.15;;;67.57;;
75926;SDS011;64605;48.296;16.416;2022-11-15T15:17:30;136.98;;;68.25;;
75926;SDS011;64605;48.296;16.416;2022-11-15T15:19:56;139.10;;;66.95;;
75926;SDS011;64605;48.296;16.416;2022-11-15T15:22:21;153.30;;;73.35;;
75926;SDS011;64605;48.296;16.416;2022-11-15T15:24:52;136.55;;;69.22;;
75926;SDS011;64605;48.296;16.416;2022-11-15T15:27:18;137.48;;;66.75;;
75926;SDS011;64605;48.296;16.416;2022-11-15T15:29:43;140.73;;;68.20;;
75926;SDS011;64605;48.296;16.416;2022-11-15T15:32:09;150.73;;;70.22;;
75926;SDS011;64605;48.296;16.416;2022-11-15T15:34:35;139.57;;;68.03;;
75926;SDS011;64605;48.296;16.416;2022-11-15T15:39:47;135.70;;;66.85;;
75926;SDS011;64605;48.296;16.416;2022-11-15T15:42:14;139.52;;;68.82;;
75926;SDS011;64605;48.296;16.416;2022-11-15T15:44:40;126.78;;;65.15;;
75926;SDS011;64605;48.296;16.416;2022-11-15T15:47:21;135.43;;;66.10;;
75926;SDS011;64605;48.296;16.416;2022-11-15T15:49:48;135.45;;;68.85;;
75926;SDS011;64605;48.296;16.416;2022-11-15T15:52:15;138.00;;;66.53;;
75926;SDS011;64605;48.296;16.416;2022-11-15T15:54:41;133.73;;;66.22;;
75926;SDS011;64605;48.296;16.416;2022-11-15T15:57:07;135.10;;;66.13;;
75926;SDS011;64605;48.296;16.416;2022-11-15T15:59:36;129.23;;;67.60;;
75926;SDS011;64605;48.296;16.416;2022-11-15T16:02:02;129.68;;;65.32;;
75926;SDS011;64605;48.296;16.416;2022-11-15T16:04:28;126.07;;;65.70;;
75926;SDS011;64605;48.296;16.416;2022-11-15T16:06:57;131.43;;;68.63;;
75926;SDS011;64605;48.296;16.416;2022-11-15T16:09:24;136.82;;;67.35;;
75926;SDS011;64605;48.296;16.416;2022-11-15T16:12:08;130.05;;;67.22;;
75926;SDS011;64605;48.296;16.416;2022-11-15T16:14:34;130.13;;;65.50;;
75926;SDS011;64605;48.296;16.416;2022-11-15T16:17:00;132.52;;;67.93;;
75926;SDS011;64605;48.296;16.416;2022-11-15T16:19:26;125.93;;;63.60;;
75926;SDS011;64605;48.296;16.416;2022-11-15T16:21:52;125.15;;;63.22;;
75926;SDS011;64605;48.296;16.416;2022-11-15T16:24:18;126.25;;;64.43;;
75926;SDS011;64605;48.296;16.416;2022-11-15T16:26:44;130.77;;;64.43;;
75926;SDS011;64605;48.296;16.416;2022-11-15T16:29:10;120.53;;;64.28;;
75926;SDS011;64605;48.296;16.416;2022-11-15T16:31:36;131.15;;;67.03;;
75926;SDS011;64605;48.296;16.416;2022-11-15T16:34:02;126.78;;;69.70;;
75926;SDS011;64605;48.296;16.416;2022-11-15T16:36:29;124.28;;;63.47;;
75926;SDS011;64605;48.296;16.416;2022-11-15T16:38:57;126.25;;;67.32;;